Date,TemperatureHighF,TemperatureAvgF,TemperatureLowF,DewpointHighF,DewpointAvgF,DewpointLowF,HumidityHigh,HumidityAvg,HumidityLow,PressureMaxIn,PressureMinIn,WindSpeedMaxMPH,WindSpeedAvgMPH,GustSpeedMaxMPH,PrecipitationSumIn
2013-1-1,24,23,21,22,21,20,95,93,89,30.70,30.55,4,0,0,0.00
2013-1-2,27,18,6,21,16,4,94,88,75,30.69,30.61,0,0,0,0.00
2013-1-3,28,12,1,22,9,-2,93,88,76,30.63,30.51,1,0,0,0.00
2013-1-4,32,23,8,28,21,6,95,90,74,30.62,30.51,2,0,0,0.00
2013-1-5,34,26,16,28,24,14,95,91,78,30.51,30.32,2,0,0,0.01
2013-1-6,31,27,20,29,25,18,95,93,86,30.32,30.23,1,0,0,0.00
2013-1-7,35,29,20,32,27,18,97,93,85,30.22,30.08,16,1,0,0.00
2013-1-8,39,34,29,35,32,28,96,92,82,30.26,30.09,5,0,0,0.03
2013-1-9,42,36,32,38,34,31,97,92,81,30.10,29.76,14,2,0,0.10
2013-1-10,32,27,23,31,26,22,100,95,91,29.96,29.83,6,1,0,0.03
2013-1-11,26,20,12,23,18,10,95,92,78,30.39,29.96,5,1,0,0.00
2013-1-12,20,17,12,17,15,10,93,92,86,30.47,30.38,4,0,0,0.00
2013-1-13,20,17,14,17,14,12,93,90,79,30.58,30.45,3,0,0,0.00
2013-1-14,23,19,14,21,17,12,95,92,88,30.64,30.51,4,0,0,0.00
2013-1-15,33,25,19,29,23,18,96,93,85,30.75,30.63,2,0,0,0.01
2013-1-16,34,17,5,29,15,2,95,91,82,30.79,30.71,1,0,0,0.01
2013-1-17,32,16,4,26,14,2,95,89,78,30.79,30.61,1,0,0,0.03
2013-1-18,36,19,8,27,16,6,94,87,69,30.62,30.47,4,0,0,0.10
2013-1-19,37,18,4,27,15,2,93,86,66,30.65,30.55,2,0,0,0.18
2013-1-20,37,18,6,29,15,3,94,87,70,30.70,30.58,1,0,0,0.12
2013-1-21,39,17,3,28,13,0,93,85,62,30.59,30.45,4,0,0,0.09
2013-1-22,36,16,2,27,13,-1,100,87,69,30.50,30.34,1,0,0,0.09
2013-1-23,39,26,12,35,23,10,96,89,78,30.35,30.13,7,1,0,0.12
2013-1-24,45,35,29,37,32,27,97,89,64,30.33,30.20,2,0,0,0.08
2013-1-25,40,36,32,39,35,31,98,97,94,30.26,30.02,2,0,0,1.19
2013-1-26,35,33,30,35,32,29,98,98,96,30.04,29.94,4,0,0,0.21
2013-1-27,34,31,29,32,30,28,98,95,86,30.09,30.04,2,0,0,0.08
2013-1-28,31,29,28,30,28,26,97,95,91,30.05,29.95,7,1,0,0.03
2013-1-29,33,31,30,31,30,29,97,96,92,30.31,29.95,10,2,0,0.01
2013-1-30,36,34,31,35,33,30,98,97,95,30.36,30.25,0,0,0,0.12
2013-1-31,39,35,33,38,35,33,98,98,96,30.40,30.29,1,0,0,0.28
2013-2-1,43,35,24,38,33,23,98,93,74,30.56,30.30,3,0,0,0.17
2013-2-2,46,29,17,36,26,15,96,89,61,30.62,30.40,2,0,0,0.10
2013-2-3,45,30,17,33,26,15,96,86,62,30.40,30.24,2,0,0,0.01
2013-2-4,46,34,28,34,30,27,96,87,61,30.25,30.09,2,0,0,0.00
2013-2-5,47,37,29,38,34,28,97,88,63,30.09,29.89,11,1,0,0.03
2013-2-6,44,34,28,34,30,26,96,84,55,30.17,30.04,8,1,0,0.00
2013-2-7,42,34,29,34,30,26,96,85,70,30.09,29.99,7,2,0,0.01
2013-2-8,33,31,29,31,30,28,97,96,94,30.19,30.09,6,1,0,0.02
2013-2-9,31,30,26,29,28,25,96,93,85,30.27,30.14,6,1,0,0.00
2013-2-10,35,27,21,30,25,20,96,91,74,30.38,30.27,5,1,0,0.04
2013-2-11,40,30,25,29,26,24,95,85,60,30.35,30.29,3,0,0,0.00
2013-2-12,42,35,28,33,31,26,93,84,68,30.42,30.29,8,0,0,0.00
2013-2-13,44,37,28,36,32,26,94,83,68,30.42,30.26,10,1,0,0.00
2013-2-14,42,32,21,32,28,20,96,85,63,30.64,30.42,4,0,0,0.00
2013-2-15,50,37,27,34,30,25,96,80,48,30.63,30.37,2,0,0,0.00
2013-2-16,52,35,21,38,30,19,95,84,52,30.36,30.05,15,2,0,0.07
2013-2-17,36,33,29,33,31,28,100,92,83,30.21,30.08,7,0,0,0.25
2013-2-18,41,30,17,32,26,16,96,87,55,30.21,29.87,5,0,0,0.05
2013-2-19,37,32,27,33,30,26,96,92,83,29.95,29.77,7,2,0,0.02
2013-2-20,36,30,21,30,27,19,95,87,65,30.10,29.96,8,1,0,0.00
2013-2-21,36,28,19,31,26,18,96,90,70,30.17,30.10,9,1,0,0.02
2013-2-22,37,33,30,33,31,29,97,94,82,30.15,29.81,8,1,0,0.14
2013-2-23,34,31,28,32,28,24,97,90,76,30.34,29.85,6,1,0,0.22
2013-2-24,37,31,25,30,28,24,96,90,73,30.45,30.23,2,0,0,0.25
2013-2-25,36,31,24,34,29,23,96,93,81,30.26,30.09,9,1,0,0.15
2013-2-26,36,29,20,30,26,19,95,87,67,30.43,30.26,2,0,0,0.12
2013-2-27,45,32,22,30,25,21,95,80,46,30.45,30.37,10,1,0,0.00
2013-2-28,37,34,32,37,33,30,98,95,88,30.52,30.40,2,0,0,0.52
2013-3-1,51,39,30,44,37,29,98,92,74,30.54,30.43,2,0,0,0.01
2013-3-2,51,38,29,43,36,28,98,92,63,30.43,30.05,2,0,0,0.32
2013-3-3,40,33,22,40,27,21,98,81,59,30.25,29.99,20,4,0,0.17
2013-3-4,44,28,16,27,20,15,95,75,37,30.41,30.21,4,0,0,0.00
2013-3-5,48,36,22,32,25,19,91,68,39,30.23,29.84,5,0,0,0.00
2013-3-6,50,38,33,40,34,30,96,84,58,29.98,29.66,11,1,0,0.11
2013-3-7,46,36,27,35,29,24,96,78,43,30.13,29.98,4,0,0,0.12
2013-3-8,46,32,20,32,26,19,96,79,50,30.23,30.06,8,1,0,0.00
2013-3-9,46,34,23,33,28,21,94,81,54,30.53,30.23,4,0,0,0.00
2013-3-10,48,34,22,34,27,20,95,78,42,30.54,30.37,9,0,0,0.07
2013-3-11,47,38,30,38,34,28,97,85,58,30.38,30.32,10,2,0,0.00
2013-3-12,51,40,30,44,37,28,96,88,68,30.32,30.18,4,0,0,0.05
2013-3-13,58,43,36,45,38,35,97,85,49,30.28,30.20,3,0,0,0.00
2013-3-14,58,44,33,45,38,32,95,80,51,30.24,30.06,3,0,0,0.00
2013-3-15,56,45,34,42,38,31,95,78,50,30.20,30.12,8,1,0,0.00
2013-3-16,50,40,32,40,36,31,95,86,63,30.13,29.77,13,2,0,0.16
2013-3-17,40,32,29,31,28,22,96,85,57,30.17,29.83,14,4,0,0.06
2013-3-18,40,35,29,32,27,19,95,75,48,30.26,30.10,13,3,0,0.09
2013-3-19,51,38,22,32,26,20,92,63,39,30.35,29.94,7,1,0,0.00
2013-3-20,59,43,32,44,36,30,95,79,50,29.91,29.54,20,2,0,0.43
2013-3-21,35,31,28,31,28,23,95,87,73,30.15,29.89,10,3,0,0.06
2013-3-22,33,29,26,27,26,24,96,90,76,30.37,30.13,11,2,0,0.09
2013-3-23,36,29,24,30,26,22,96,89,67,30.46,30.37,6,1,0,0.16
2013-3-24,43,29,17,27,21,15,93,74,35,30.46,30.29,9,1,0,0.01
2013-3-25,49,35,20,32,24,19,93,69,35,30.30,30.07,10,1,0,0.01
2013-3-26,57,41,28,36,31,26,94,72,38,30.07,29.98,6,0,0,0.00
2013-3-27,59,43,32,42,36,30,93,78,44,30.04,29.97,12,1,0,0.01
2013-3-28,55,44,31,46,38,30,96,82,58,30.14,30.04,8,1,0,0.00
2013-3-29,54,45,39,46,42,38,97,91,71,30.27,30.14,7,1,0,0.26
2013-3-30,61,45,30,43,36,30,98,76,35,30.36,30.17,6,0,0,0.01
2013-3-31,66,46,29,39,34,28,96,68,26,30.18,29.94,6,1,0,0.00
2013-4-1,66,47,30,43,37,29,95,72,39,30.04,29.96,8,1,0,0.00
2013-4-2,63,46,33,44,39,32,96,78,45,30.14,30.05,11,1,0,0.00
2013-4-3,62,48,35,45,40,34,96,75,37,30.15,30.04,8,1,0,0.00
2013-4-4,63,48,38,48,42,36,95,80,50,30.04,29.77,13,1,0,0.14
2013-4-5,54,47,44,47,44,42,96,89,69,29.94,29.87,11,2,0,0.36
2013-4-6,49,45,42,44,42,39,96,89,71,29.97,29.89,11,2,0,0.51
2013-4-7,46,42,37,41,39,35,95,89,77,29.87,29.67,10,1,0,0.34
2013-4-8,42,37,30,39,34,27,96,89,75,30.25,29.83,10,2,0,0.17
2013-4-9,51,38,24,35,29,23,95,73,44,30.42,30.26,7,1,0,0.00
2013-4-10,53,45,37,47,39,35,92,80,60,30.31,29.94,9,1,0,0.17
2013-4-11,48,41,31,37,33,29,93,74,51,30.17,30.09,13,2,0,0.00
2013-4-12,54,42,28,40,32,27,96,71,35,30.16,29.69,9,1,0,0.38
2013-4-13,41,37,34,39,32,24,95,81,53,29.93,29.65,25,4,0,0.23
2013-4-14,44,37,28,35,31,27,94,79,54,29.98,29.90,8,2,0,0.02
2013-4-15,47,36,28,30,24,16,96,64,39,30.09,29.91,11,2,0,0.00
2013-4-16,44,35,28,20,16,13,68,47,29,30.36,30.09,8,2,0,0.00
2013-4-17,48,35,22,23,19,11,89,57,25,30.47,30.36,11,2,0,0.00
2013-4-18,47,38,24,33,26,21,90,66,40,30.46,30.30,4,0,0,0.00
2013-4-19,47,43,39,45,41,32,96,93,74,30.30,30.02,8,2,0,0.69
2013-4-20,53,46,42,43,40,36,95,81,60,30.17,30.06,14,2,0,0.14
2013-4-21,52,44,34,39,37,33,94,78,59,30.19,30.04,16,2,0,0.07
2013-4-22,50,38,28,32,24,15,91,61,26,30.46,30.20,9,2,0,0.00
2013-4-23,52,38,24,30,25,19,94,65,29,30.45,30.28,7,1,0,0.01
2013-4-24,60,43,25,37,29,24,94,65,32,30.40,30.07,10,2,0,0.00
2013-4-25,64,48,30,37,33,28,95,63,31,30.14,30.02,12,2,0,0.00
2013-4-26,69,52,31,45,38,30,93,65,31,30.25,30.14,10,1,0,0.00
2013-4-27,64,52,36,46,39,35,95,66,36,30.19,30.07,17,2,0,0.02
2013-4-28,59,50,45,45,41,36,92,74,45,30.10,29.93,8,1,0,0.02
2013-4-29,51,46,37,44,32,17,92,60,36,29.99,29.79,25,6,0,0.14
2013-4-30,45,36,29,34,26,17,92,69,43,30.44,29.99,13,3,0,0.02
2013-5-1,54,39,24,33,25,18,95,64,25,30.70,30.45,10,1,0,0.00
2013-5-2,67,47,26,39,29,23,92,58,22,30.70,30.30,10,1,0,0.00
2013-5-3,63,51,42,42,39,35,89,65,41,30.30,30.18,6,1,0,0.00
2013-5-4,66,54,34,41,34,31,93,53,28,30.24,30.04,12,3,0,0.00
2013-5-5,76,57,35,42,36,30,89,51,19,30.04,29.81,11,1,0,0.00
2013-5-6,79,59,38,44,39,35,90,55,21,29.88,29.71,14,2,0,0.00
2013-5-7,82,61,38,46,41,35,92,56,19,29.87,29.75,13,2,0,0.00
2013-5-8,80,64,43,49,44,39,86,54,27,29.97,29.88,8,2,0,0.00
2013-5-9,81,63,44,52,47,42,94,61,30,30.06,29.97,12,2,0,0.00
2013-5-10,84,64,43,51,44,32,93,56,17,30.16,30.06,7,1,0,0.00
2013-5-11,84,65,46,57,47,41,90,60,23,30.13,30.00,8,1,0,0.00
2013-5-12,79,66,49,54,51,47,93,64,35,30.02,29.90,12,3,0,0.00
2013-5-13,75,58,47,57,50,46,96,79,45,30.09,29.77,15,2,0,0.39
2013-5-14,62,51,41,47,40,35,96,70,42,30.14,30.04,8,2,0,0.00
2013-5-15,63,48,34,43,39,32,96,73,35,30.10,29.93,9,1,0,0.00
2013-5-16,62,52,44,46,43,41,91,72,47,29.96,29.84,7,1,0,0.00
2013-5-17,64,51,36,49,43,35,96,78,48,29.98,29.86,6,1,0,0.11
2013-5-18,52,49,40,48,46,38,96,89,76,30.16,29.98,3,0,0,0.00
2013-5-19,59,48,36,48,43,35,97,82,56,30.30,30.16,11,2,0,0.00
2013-5-20,71,54,37,50,43,36,97,71,34,30.31,29.91,7,1,0,0.00
2013-5-21,74,53,40,48,42,38,94,71,30,29.91,29.54,21,3,0,0.09
2013-5-22,47,40,32,43,37,31,100,89,63,30.05,29.73,10,3,0,0.22
2013-5-23,60,46,30,38,32,28,97,65,31,30.09,29.95,11,2,0,0.01
2013-5-24,49,41,31,44,38,30,95,87,71,30.12,29.97,7,1,0,0.29
2013-5-25,61,47,31,44,37,30,97,73,41,30.09,30.00,8,1,0,0.01
2013-5-26,68,50,33,49,41,32,95,74,34,30.00,29.89,13,2,0,0.00
2013-5-27,66,54,47,49,46,41,95,76,43,29.98,29.77,8,1,0,0.06
2013-5-28,59,53,48,49,47,44,97,82,61,29.84,29.75,12,3,0,0.02
2013-5-29,61,49,39,49,45,38,97,85,54,29.93,29.68,14,1,0,0.42
2013-5-30,57,49,39,46,42,37,96,79,52,30.17,29.93,11,2,0,0.01
2013-5-31,65,51,38,45,39,34,95,67,33,30.30,30.18,10,1,0,0.00
2013-6-1,68,53,34,46,40,33,95,66,34,30.27,29.98,7,1,0,0.00
2013-6-2,64,53,40,49,44,39,95,74,45,29.98,29.86,14,3,0,0.01
2013-6-3,68,56,45,49,45,39,96,69,36,30.03,29.96,10,2,0,0.07
2013-6-4,74,58,38,49,43,36,95,63,31,30.11,30.02,7,1,0,0.00
2013-6-5,78,62,41,50,45,39,93,60,27,30.05,29.94,7,1,0,0.00
2013-6-6,83,66,49,54,49,46,90,61,28,29.98,29.86,8,1,0,0.00
2013-6-7,77,65,49,55,49,36,93,60,34,29.91,29.82,19,4,0,0.00
2013-6-8,75,62,45,47,42,36,83,51,25,30.00,29.91,8,2,0,0.00
2013-6-9,75,60,42,49,44,37,92,60,30,29.93,29.83,13,3,0,0.00
2013-6-10,76,59,38,45,40,34,92,55,23,29.86,29.70,13,2,0,0.00
2013-6-11,70,55,40,47,42,37,91,64,39,30.01,29.75,11,2,0,0.02
2013-6-12,67,57,47,49,42,36,90,61,43,30.03,29.95,11,4,0,0.13
2013-6-13,65,55,44,49,44,37,96,70,38,30.08,29.99,12,2,0,0.06
2013-6-14,66,54,43,45,42,38,92,68,37,30.18,30.08,7,1,0,0.00
2013-6-15,77,59,36,46,39,32,92,55,20,30.07,29.93,7,1,0,0.00
2013-6-16,86,65,40,49,41,33,91,51,15,30.00,29.84,6,1,0,0.00
2013-6-17,82,65,45,53,48,42,89,59,32,29.97,29.74,8,2,0,0.00
2013-6-18,71,59,47,55,51,45,93,75,53,29.85,29.72,17,3,0,0.01
2013-6-19,53,50,44,51,48,42,97,95,91,29.95,29.70,10,3,0,1.08
2013-6-20,58,50,44,49,45,41,97,86,54,30.09,29.92,11,2,0,0.57
2013-6-21,62,51,42,50,46,41,98,83,53,30.12,30.07,13,2,0,0.01
2013-6-22,68,55,44,49,46,41,97,74,41,30.10,29.94,9,1,0,0.00
2013-6-23,74,60,39,54,46,38,96,65,35,29.94,29.58,6,1,0,0.00
2013-6-24,67,58,54,58,54,52,96,88,65,29.74,29.55,10,1,0,0.68
2013-6-25,69,58,50,56,54,49,98,86,59,29.89,29.74,13,2,0,0.28
2013-6-26,72,58,51,58,55,50,97,89,58,30.12,29.89,7,0,0,0.30
2013-6-27,83,67,49,62,57,48,98,74,39,30.16,30.09,7,1,0,0.01
2013-6-28,89,72,54,65,60,52,96,69,33,30.17,29.97,7,1,0,0.00
2013-6-29,88,73,56,67,62,54,96,71,43,30.02,29.84,10,2,0,0.00
2013-6-30,90,74,55,64,59,54,96,66,33,29.99,29.88,7,1,0,0.00
2013-7-1,99,78,54,73,62,53,93,64,26,29.94,29.78,5,1,0,0.00
2013-7-2,94,78,61,68,64,59,94,67,34,29.93,29.82,8,1,0,0.00
2013-7-3,86,74,60,66,60,55,95,65,36,29.93,29.82,9,2,0,0.00
2013-7-4,82,68,54,58,51,44,93,59,27,29.87,29.76,11,2,0,0.00
2013-7-5,76,64,47,54,50,45,93,62,39,29.84,29.75,12,3,0,0.00
2013-7-6,82,63,43,54,48,41,93,65,26,29.89,29.74,7,1,0,0.00
2013-7-7,85,68,47,56,50,43,93,59,24,29.83,29.72,8,1,0,0.00
2013-7-8,79,65,55,57,53,49,90,68,36,30.03,29.75,12,2,0,0.06
2013-7-9,88,67,47,55,48,40,92,59,20,30.09,29.94,9,1,0,0.00
2013-7-10,90,71,48,57,51,46,91,55,24,29.95,29.72,10,2,0,0.00
2013-7-11,79,65,50,53,47,42,91,58,27,29.82,29.75,9,2,0,0.00
2013-7-12,78,60,44,49,42,37,91,60,25,29.93,29.82,10,2,0,0.00
2013-7-13,76,60,40,45,40,35,91,55,23,30.11,29.94,11,2,0,0.00
2013-7-14,85,65,41,52,43,38,90,54,21,30.12,29.90,6,1,0,0.00
2013-7-15,84,66,46,50,46,40,90,56,21,29.92,29.84,11,2,0,0.00
2013-7-16,92,70,47,59,52,43,89,57,26,29.90,29.73,11,2,0,0.00
2013-7-17,87,75,59,62,55,48,86,54,27,30.00,29.78,15,3,0,0.00
2013-7-18,90,71,50,55,48,36,89,53,15,30.07,29.96,8,1,0,0.00
2013-7-19,91,71,47,51,46,35,87,49,14,30.01,29.88,7,1,0,0.00
2013-7-20,91,70,46,50,44,31,88,48,12,29.91,29.76,8,1,0,0.00
2013-7-21,92,70,45,50,42,31,87,46,12,29.82,29.72,10,1,0,0.00
2013-7-22,89,69,45,50,44,38,89,48,17,29.90,29.76,10,1,0,0.00
2013-7-23,94,71,46,51,44,33,85,48,12,29.98,29.85,7,0,0,0.00
2013-7-24,93,73,48,52,43,24,85,45,8,29.94,29.85,9,2,0,0.00
2013-7-25,94,73,50,54,45,34,83,46,12,29.96,29.89,10,1,0,0.00
2013-7-26,94,72,46,52,42,27,84,44,10,30.03,29.87,7,1,0,0.00
2013-7-27,84,69,50,49,44,37,84,47,20,29.95,29.80,10,2,0,0.00
2013-7-28,83,64,44,46,42,35,85,50,19,29.85,29.76,11,2,0,0.00
2013-7-29,83,64,43,47,41,35,87,51,19,29.89,29.82,9,1,0,0.00
2013-7-30,86,69,53,49,44,37,75,47,19,30.03,29.89,6,1,0,0.00
2013-7-31,92,71,47,51,46,39,84,47,18,30.04,29.83,10,1,0,0.00
2013-8-1,76,62,53,57,52,47,95,73,42,29.94,29.78,16,3,0,0.03
2013-8-2,68,59,52,57,54,50,96,83,62,30.04,29.91,7,1,0,0.02
2013-8-3,74,59,45,56,51,44,97,77,47,30.10,30.02,9,1,0,0.00
2013-8-4,83,65,44,55,50,43,95,63,29,30.06,29.91,6,1,0,0.00
2013-8-5,85,66,49,53,50,45,92,62,26,29.96,29.83,8,1,0,0.00
2013-8-6,88,69,48,54,48,39,91,55,18,29.95,29.83,6,1,0,0.00
2013-8-7,89,70,48,53,46,36,90,51,16,29.91,29.80,9,1,0,0.00
2013-8-8,89,68,46,54,48,43,90,55,21,29.91,29.77,10,1,0,0.00
2013-8-9,91,70,52,56,51,47,89,55,27,29.84,29.71,11,1,0,0.00
2013-8-10,89,72,48,54,50,45,87,51,26,29.89,29.76,7,1,0,0.00
2013-8-11,82,65,54,56,54,51,91,70,40,29.91,29.84,5,0,0,0.00
2013-8-12,88,82,74,56,50,39,43,33,22,29.95,29.83,13,4,0,0.00
2013-8-13,88,72,54,55,49,42,77,48,20,29.98,29.86,10,1,0,0.00
2013-8-14,96,73,49,53,48,34,87,49,12,29.93,29.74,5,0,0,0.00
2013-8-15,94,80,60,52,49,44,71,37,18,29.88,29.73,7,2,0,0.00
2013-8-16,88,72,50,54,50,46,87,52,26,29.92,29.82,11,2,0,0.00
2013-8-17,87,71,57,62,55,51,94,62,31,29.95,29.83,10,1,0,0.00
2013-8-18,85,68,50,60,51,44,97,62,24,30.02,29.92,8,1,0,0.00
2013-8-19,85,68,48,52,47,45,94,55,25,30.00,29.88,9,2,0,0.00
2013-8-20,82,64,47,50,43,30,88,52,17,30.02,29.92,8,2,0,0.00
2013-8-21,87,64,41,47,39,33,84,47,15,30.04,29.91,10,2,0,0.00
2013-8-22,88,72,54,53,46,42,72,45,20,29.95,29.74,16,2,0,0.00
2013-8-23,81,68,54,59,54,50,93,65,36,29.89,29.72,13,2,0,0.00
2013-8-24,91,69,46,54,48,43,92,55,20,29.82,29.64,10,2,0,0.00
2013-8-25,86,68,48,52,49,44,87,55,26,29.92,29.71,13,2,0,0.00
2013-8-26,84,70,51,58,51,45,98,58,26,29.94,29.80,9,2,0,0.03
2013-8-27,86,65,46,55,50,45,94,64,27,29.95,29.74,4,0,0,0.00
2013-8-28,89,71,57,58,54,49,85,58,26,29.84,29.72,23,3,0,0.00
2013-8-29,86,67,54,64,55,51,91,69,31,29.98,29.81,11,1,0,0.00
2013-8-30,80,64,48,56,51,46,98,66,36,30.11,29.98,8,1,0,0.00
2013-8-31,88,67,46,55,49,42,94,59,21,30.05,29.84,5,1,0,0.00
2013-9-1,94,70,46,54,48,42,90,52,17,29.86,29.71,8,1,0,0.00
2013-9-2,84,69,57,58,53,50,80,61,31,29.86,29.73,8,1,0,0.00
2013-9-3,80,69,61,61,58,57,87,71,48,29.97,29.86,9,1,0,0.00
2013-9-4,91,71,56,70,57,52,93,66,27,29.97,29.82,6,1,0,0.00
2013-9-5,81,66,58,65,59,56,94,80,48,29.99,29.79,11,1,0,0.03
2013-9-6,73,61,54,58,53,50,97,77,49,30.10,29.88,11,2,0,0.01
2013-9-7,76,60,43,52,49,42,97,70,38,30.10,29.95,9,1,0,0.00
2013-9-8,70,58,48,52,48,45,92,72,47,30.04,29.98,13,2,0,0.00
2013-9-9,79,64,50,53,50,48,91,66,37,30.04,29.92,6,1,0,0.00
2013-9-10,86,65,44,54,48,42,94,62,23,30.02,29.90,5,1,0,0.00
2013-9-11,93,69,45,52,46,39,92,53,15,30.03,29.90,5,1,0,0.00
2013-9-12,92,72,50,53,47,44,80,47,20,29.94,29.77,8,1,0,0.00
2013-9-13,87,70,54,54,51,48,82,53,29,29.81,29.67,11,2,0,0.00
2013-9-14,88,70,53,56,50,44,88,53,28,29.84,29.75,11,1,0,0.00
2013-9-15,89,73,54,56,49,44,74,46,28,29.79,29.58,15,2,0,0.00
2013-9-16,74,63,54,58,52,47,95,70,40,29.82,29.67,10,2,0,0.03
2013-9-17,65,53,41,50,47,39,96,81,56,29.82,29.62,15,3,0,0.03
2013-9-18,56,50,40,52,47,39,97,89,69,30.15,29.80,6,0,0,0.06
2013-9-19,71,51,34,46,40,34,97,72,27,30.22,29.98,6,0,0,0.02
2013-9-20,82,57,34,48,39,33,95,62,18,29.98,29.54,7,1,0,0.00
2013-9-21,67,55,43,48,44,40,90,68,44,29.71,29.56,9,1,0,0.01
2013-9-22,59,52,48,50,47,45,94,84,63,29.79,29.65,8,0,0,0.00
2013-9-23,60,52,44,48,45,42,96,80,52,29.99,29.79,4,0,0,0.00
2013-9-24,51,48,44,49,46,43,96,93,89,29.95,29.79,6,0,0,0.00
2013-9-25,47,44,42,45,43,41,97,96,94,29.86,29.78,9,2,0,0.00
2013-9-26,56,45,34,46,41,33,97,86,47,30.08,29.86,9,1,0,0.00
2013-9-27,54,42,31,44,39,30,98,88,62,30.14,30.05,7,0,0,0.00
2013-9-28,59,51,45,50,46,44,95,86,63,30.05,29.62,8,1,0,0.00
2013-9-29,60,48,44,50,44,43,95,89,57,29.78,29.55,14,2,0,0.01
2013-9-30,54,48,40,45,40,36,96,75,51,29.99,29.53,17,3,0,0.00
2013-10-1,53,45,40,44,41,37,96,87,58,30.21,29.97,12,1,0,0.00
2013-10-2,53,42,31,40,36,31,98,81,49,30.23,30.00,8,1,0,0.00
2013-10-3,52,41,31,40,37,29,94,84,63,30.45,30.01,12,2,0,0.00
2013-10-4,55,38,25,40,30,24,97,79,39,30.61,30.46,6,0,0,0.06
2013-10-5,63,42,26,37,30,23,96,71,22,30.56,30.38,7,0,0,0.06
2013-10-6,72,47,28,43,33,27,94,66,22,30.38,30.02,8,0,0,0.08
2013-10-7,62,46,30,42,35,29,94,70,41,30.03,29.92,12,2,0,0.12
2013-10-8,48,42,35,42,39,34,100,90,75,30.02,29.93,9,0,0,0.01
2013-10-9,48,38,31,43,36,31,98,94,82,30.11,29.99,3,0,0,0.04
2013-10-10,51,43,38,42,40,37,97,88,63,30.04,29.94,5,0,0,0.01
2013-10-11,52,43,35,42,38,33,96,86,56,30.15,30.04,5,0,0,0.01
2013-10-12,55,42,32,41,36,31,96,82,52,30.15,30.05,5,0,0,0.00
2013-10-13,47,39,31,39,36,30,97,90,72,30.36,30.16,5,0,0,0.01
2013-10-14,54,38,28,40,33,27,96,83,53,30.48,30.36,6,0,0,0.05
2013-10-15,56,37,23,36,29,21,95,78,35,30.51,30.29,3,0,0,0.05
2013-10-16,54,39,30,38,32,28,100,79,41,30.29,30.21,6,0,0,0.08
2013-10-17,47,35,29,39,33,28,94,91,71,30.33,30.25,1,0,0,0.07
2013-10-18,56,45,31,39,34,28,92,68,41,30.41,30.30,4,1,0,0.07
2013-10-19,61,41,25,39,32,23,94,75,38,30.32,30.17,6,0,0,0.03
2013-10-20,58,41,26,40,34,25,94,79,50,30.27,30.20,8,1,0,0.00
2013-10-21,63,43,28,43,35,26,94,77,44,30.33,30.23,4,0,0,0.00
2013-10-22,66,44,26,45,36,24,96,79,42,30.30,30.17,4,0,0,0.00
2013-10-23,65,43,26,44,35,25,97,79,40,30.24,30.14,5,0,0,0.00
2013-10-24,67,45,27,43,36,26,96,75,39,30.21,30.12,4,0,0,0.01
2013-10-25,64,43,27,43,35,25,96,77,42,30.34,30.21,4,0,0,0.00
2013-10-26,64,41,26,42,34,24,95,78,43,30.39,30.16,5,0,0,0.00
2013-10-27,55,40,25,43,34,23,96,81,50,30.15,29.73,9,1,0,0.01
2013-10-28,47,41,28,27,22,19,72,47,37,29.90,29.80,15,4,0,0.00
2013-10-29,46,32,21,25,22,17,87,68,43,30.14,29.90,7,0,0,0.00
2013-10-30,49,34,19,30,24,16,92,71,41,30.22,30.12,5,0,0,0.00
2013-10-31,43,37,30,41,35,26,96,91,85,30.27,30.15,1,0,0,0.04
2013-11-1,53,41,33,43,36,32,100,84,55,30.38,30.08,1,0,0,0.00
2013-11-2,48,42,38,43,36,25,95,79,57,30.09,29.75,9,2,0,0.10
2013-11-3,39,34,29,34,30,25,95,84,58,30.10,29.89,9,0,0,0.03
2013-11-4,35,30,27,32,29,26,96,94,83,30.32,30.09,7,1,0,0.29
2013-11-5,34,29,21,33,28,19,96,94,92,30.35,30.27,2,0,0,0.05
2013-11-6,44,38,33,39,36,32,97,92,81,30.46,30.33,2,0,0,0.26
2013-11-7,46,41,37,44,39,36,97,94,84,30.32,29.83,11,1,0,0.16
2013-11-8,44,38,29,39,35,28,96,90,77,30.26,30.02,4,0,0,0.01
2013-11-9,46,36,26,39,33,25,97,89,72,30.31,30.21,2,0,0,0.07
2013-11-10,51,41,33,47,40,32,97,94,86,30.28,30.17,4,0,0,0.00
2013-11-11,58,39,30,47,36,29,98,90,63,30.41,30.28,4,0,0,0.06
2013-11-12,49,43,30,43,40,28,97,90,76,30.44,30.34,2,0,0,0.10
2013-11-13,49,42,33,45,40,32,98,93,80,30.43,30.31,5,0,0,0.01
2013-11-14,44,36,28,39,34,27,98,92,79,30.31,30.02,9,2,0,0.04
2013-11-15,43,37,33,35,33,29,96,85,63,30.01,29.47,10,2,0,0.01
2013-11-16,36,34,33,33,32,29,97,91,81,29.79,29.33,10,2,0,0.01
2013-11-17,40,35,32,36,32,29,95,90,80,30.09,29.79,14,1,0,0.05
2013-11-18,40,33,27,37,31,26,97,94,85,30.10,29.89,1,0,0,0.14
2013-11-19,45,40,34,41,38,33,97,93,79,29.89,29.75,8,1,0,0.04
2013-11-20,40,28,16,39,23,14,96,80,50,30.49,29.82,9,3,0,0.21
2013-11-21,33,21,12,22,16,10,100,84,60,30.84,30.49,5,0,0,0.06
2013-11-22,36,22,12,22,17,10,92,81,50,30.90,30.76,5,0,0,0.08
2013-11-23,39,24,13,26,19,10,92,83,52,30.76,30.47,5,0,0,0.10
2013-11-24,43,27,15,30,22,13,93,84,56,30.50,30.39,4,0,0,0.15
2013-11-25,49,30,20,31,25,19,94,83,46,30.56,30.48,4,0,0,0.15
2013-11-26,46,30,20,34,26,18,94,86,59,30.48,30.29,1,0,0,0.04
2013-11-27,48,30,20,35,26,19,95,87,57,30.31,30.19,3,0,0,0.01
2013-11-28,44,28,20,33,25,19,95,87,65,30.34,30.24,5,0,0,0.00
2013-11-29,44,30,18,33,27,15,96,87,61,30.41,30.34,8,0,0,0.03
2013-11-30,39,36,33,39,35,32,100,96,95,30.39,30.28,0,0,0,0.09
2013-12-1,45,41,38,44,40,37,98,96,95,30.28,29.78,9,1,0,0.74
2013-12-2,45,33,25,43,31,23,96,91,77,29.94,29.67,16,3,0,0.41
2013-12-3,26,20,10,25,14,4,95,77,63,30.32,29.94,12,2,0,0.00
2013-12-4,21,9,0,10,4,-4,90,79,53,30.50,30.32,6,0,0,0.00
2013-12-5,18,5,-3,9,1,-6,88,82,63,30.50,30.43,3,0,0,0.00
2013-12-6,18,8,-2,10,2,-5,90,78,64,30.45,30.29,6,1,0,0.00
2013-12-7,13,4,-7,1,-3,-11,86,75,58,30.57,30.23,10,1,0,0.00
2013-12-8,10,0,-10,4,-4,-14,87,83,75,30.81,30.57,1,0,0,0.00
2013-12-9,21,14,-1,17,10,-4,92,84,76,30.79,30.56,4,0,0,0.00
2013-12-10,25,23,19,22,19,14,91,85,76,30.59,30.52,4,0,0,0.00
2013-12-11,33,24,14,24,20,12,93,86,67,30.59,30.50,4,0,0,0.01
2013-12-12,36,26,12,28,22,10,94,85,66,30.49,30.27,2,0,0,0.01
2013-12-13,35,31,30,33,30,28,96,94,90,30.40,30.29,0,0,0,0.00
2013-12-14,35,33,30,34,32,29,98,96,95,30.47,30.43,0,0,0,0.14
2013-12-15,46,35,27,35,31,25,96,87,63,30.45,30.36,4,0,0,0.16
2013-12-16,44,28,18,32,25,16,96,87,57,30.55,30.44,1,0,0,0.17
2013-12-17,41,27,15,33,23,13,95,88,66,30.51,30.14,4,0,0,0.07
2013-12-18,38,32,27,32,29,25,96,88,69,30.14,29.94,4,0,0,0.07
2013-12-19,31,24,15,30,22,14,96,91,85,30.29,30.00,0,0,0,0.00
2013-12-20,27,21,10,26,19,8,95,93,91,30.22,29.80,1,0,0,0.00
2013-12-21,34,31,27,31,30,26,97,95,90,30.18,29.89,0,0,0,0.05
2013-12-22,35,33,32,34,33,31,100,97,96,30.39,30.18,0,0,0,0.06
2013-12-23,42,37,33,39,35,30,98,94,84,30.39,30.14,20,1,0,0.21
2013-12-24,39,27,12,31,24,11,96,89,65,30.70,30.40,8,0,0,0.26
2013-12-25,38,22,5,27,18,2,93,86,60,30.71,30.59,1,0,0,0.04
2013-12-26,43,29,19,31,25,18,95,87,58,30.59,30.45,4,0,0,0.08
2013-12-27,41,26,11,32,22,9,95,87,68,30.47,30.26,1,0,0,0.09
2013-12-28,33,28,22,30,26,21,100,92,86,30.59,30.33,5,0,0,0.03
2013-12-29,33,29,22,31,27,20,95,92,78,30.59,30.37,5,0,0,0.03
2013-12-30,36,30,20,35,29,18,96,94,87,30.41,30.26,2,0,0,0.10
2013-12-31,39,36,33,37,34,32,96,93,89,30.42,30.21,1,0,0,0.20
2014-1-1,40,31,22,34,29,20,100,94,81,30.53,30.41,2,0,0,0.15
2014-1-2,41,32,24,34,29,23,97,91,75,30.46,29.95,5,0,0,0.03